Time;durP1;ratioP1;P1;durP2;ratioP2;P2;SDS_P1;SDS_P2;PMS_P1;PMS_P2;Temp;Humidity;BMP_temperature;BMP_pressure;BME280_temperature;BME280_humidity;BME280_pressure;Samples;Min_cycle;Max_cycle;Signal;HPM_P1;HPM_P2
2022/04/22 00:00:01;;;;;;;12.57;6.07;;;10.20;99.90;;;;;;5040581;28;20043;-81
2022/04/22 00:02:27;;;;;;;12.73;6.15;;;10.20;99.90;;;;;;5040525;28;20172;-82
2022/04/22 00:04:53;;;;;;;12.43;5.80;;;10.20;99.90;;;;;;5076775;28;20067;-82
2022/04/22 00:07:18;;;;;;;15.43;6.22;;;10.10;99.90;;;;;;5057520;28;20109;-82
2022/04/22 00:09:44;;;;;;;15.55;6.20;;;10.10;99.90;;;;;;5049186;28;20041;-82
2022/04/22 00:12:10;;;;;;;13.55;6.40;;;10.00;99.90;;;;;;5057907;28;20040;-82
2022/04/22 00:14:36;;;;;;;14.48;6.40;;;10.00;99.90;;;;;;5050801;28;20042;-81
2022/04/22 00:17:02;;;;;;;13.07;6.07;;;10.00;99.90;;;;;;5073565;28;20040;-82
2022/04/22 00:19:27;;;;;;;11.77;5.97;;;9.90;99.90;;;;;;5044117;28;20036;-81
2022/04/22 00:21:53;;;;;;;13.07;6.05;;;9.90;99.90;;;;;;5062241;28;20321;-82
2022/04/22 00:24:19;;;;;;;13.63;6.07;;;9.90;99.90;;;;;;5049254;28;21206;-82
2022/04/22 00:26:45;;;;;;;13.80;6.10;;;9.90;99.90;;;;;;5050796;28;20040;-82
2022/04/22 00:29:11;;;;;;;12.82;6.18;;;10.20;99.90;;;;;;5063934;28;20046;-82
2022/04/22 00:31:38;;;;;;;11.73;5.75;;;9.90;99.90;;;;;;5071903;28;20055;-82
2022/04/22 00:34:04;;;;;;;14.90;6.43;;;9.90;99.90;;;;;;5049252;28;20044;-82
2022/04/22 00:36:30;;;;;;;15.43;6.50;;;9.90;99.90;;;;;;5046632;28;20043;-82
2022/04/22 00:38:56;;;;;;;13.52;6.28;;;9.90;99.90;;;;;;5042492;28;20032;-82
2022/04/22 00:41:22;;;;;;;12.75;6.32;;;9.90;99.90;;;;;;5080395;28;20068;-81
2022/04/22 00:43:53;;;;;;;14.70;6.65;;;9.90;99.90;;;;;;5043708;28;20137;-82
2022/04/22 00:46:19;;;;;;;14.20;6.80;;;9.90;99.90;;;;;;5052764;28;20127;-82
2022/04/22 00:48:45;;;;;;;14.90;6.47;;;9.80;99.90;;;;;;5072754;28;20028;-81
2022/04/22 00:51:12;;;;;;;12.73;6.18;;;9.80;99.90;;;;;;5058864;28;20043;-82
2022/04/22 00:53:40;;;;;;;13.93;6.70;;;9.80;99.90;;;;;;5067302;28;20041;-81
2022/04/22 00:56:08;;;;;;;16.35;6.63;;;9.80;99.90;;;;;;5075920;28;20043;-82
2022/04/22 00:58:42;;;;;;;13.85;6.97;;;9.80;99.90;;;;;;5082375;28;20373;-81
2022/04/22 01:01:08;;;;;;;15.68;6.30;;;9.70;99.90;;;;;;5076045;28;20043;-81
2022/04/22 01:03:33;;;;;;;15.25;6.35;;;9.70;99.90;;;;;;5077542;28;20052;-82
2022/04/22 01:11:35;;;;;;;14.85;6.20;;;9.70;99.90;;;;;;5079249;28;20063;-82
2022/04/22 01:14:01;;;;;;;12.32;5.72;;;9.70;99.90;;;;;;5061352;28;20052;-82
2022/04/22 01:16:28;;;;;;;12.57;5.97;;;9.90;99.90;;;;;;5053995;28;20036;-82
2022/04/22 01:18:54;;;;;;;12.45;6.30;;;9.70;99.90;;;;;;5052796;28;20043;-81
2022/04/22 01:21:20;;;;;;;12.95;6.63;;;9.60;99.90;;;;;;5069485;28;20032;-81
2022/04/22 01:23:45;;;;;;;15.73;6.15;;;9.50;99.90;;;;;;5082755;28;20037;-82
2022/04/22 01:26:13;;;;;;;16.33;6.32;;;9.50;99.90;;;;;;5066249;28;20073;-82
2022/04/22 01:28:39;;;;;;;14.18;6.18;;;9.90;99.90;;;;;;5049604;28;20166;-81
2022/04/22 01:31:05;;;;;;;12.25;5.80;;;9.80;99.90;;;;;;5069979;28;20052;-82
2022/04/22 01:33:31;;;;;;;12.38;6.10;;;9.30;99.90;;;;;;5051525;28;20069;-82
2022/04/22 01:35:57;;;;;;;12.55;5.72;;;9.20;99.90;;;;;;5070356;28;20067;-82
2022/04/22 01:38:24;;;;;;;16.35;6.47;;;9.20;99.90;;;;;;5046892;28;20481;-82
2022/04/22 01:40:49;;;;;;;12.30;5.80;;;9.10;99.90;;;;;;5059880;28;20137;-82
2022/04/22 01:43:15;;;;;;;12.57;5.93;;;9.10;99.90;;;;;;5067242;28;20505;-81
2022/04/22 01:45:41;;;;;;;11.82;6.18;;;9.00;99.90;;;;;;5060104;28;20047;-81
2022/04/22 01:48:07;;;;;;;10.75;5.60;;;9.00;99.90;;;;;;5064044;28;20151;-81
2022/04/22 01:50:33;;;;;;;13.13;5.72;;;8.90;99.90;;;;;;5047839;28;20158;-82
2022/04/22 01:52:59;;;;;;;14.45;6.10;;;8.90;99.90;;;;;;5050358;28;20036;-81
2022/04/22 01:55:26;;;;;;;12.25;6.03;;;8.80;99.90;;;;;;5046400;28;20033;-82
2022/04/22 01:57:53;;;;;;;15.98;6.32;;;9.00;99.90;;;;;;5054306;28;20400;-82
2022/04/22 02:00:19;;;;;;;14.50;5.90;;;8.80;99.90;;;;;;5065330;28;20052;-81
2022/04/22 02:02:45;;;;;;;11.00;5.63;;;8.80;99.90;;;;;;5047597;28;20408;-82
2022/04/22 02:05:10;;;;;;;14.00;5.88;;;8.70;99.90;;;;;;5047929;28;20036;-82
2022/04/22 02:07:36;;;;;;;12.52;5.72;;;8.70;99.90;;;;;;5065370;28;20067;-82
2022/04/22 02:10:02;;;;;;;14.88;5.57;;;8.60;99.90;;;;;;5066482;28;20459;-81
2022/04/22 02:12:28;;;;;;;14.35;6.28;;;8.60;99.90;;;;;;5046066;28;20051;-81
2022/04/22 02:14:54;;;;;;;13.18;5.80;;;8.60;99.90;;;;;;5066082;28;20523;-81
2022/04/22 02:17:19;;;;;;;12.85;5.53;;;8.50;99.90;;;;;;5066500;28;20032;-81
2022/04/22 02:19:45;;;;;;;14.75;6.03;;;8.70;99.90;;;;;;5047403;28;20036;-81
2022/04/22 02:22:11;;;;;;;15.18;6.13;;;8.50;99.90;;;;;;5077574;28;20407;-81
2022/04/22 02:24:37;;;;;;;13.07;5.75;;;8.40;99.90;;;;;;5044972;28;20035;-81
2022/04/22 02:29:47;;;;;;;13.75;5.95;;;8.40;99.90;;;;;;5059494;28;20158;-81
2022/04/22 02:32:12;;;;;;;12.38;6.43;;;8.60;99.90;;;;;;5047687;28;20128;-81
2022/04/22 02:34:38;;;;;;;13.13;6.45;;;8.30;99.90;;;;;;5044568;28;20200;-81
2022/04/22 02:37:04;;;;;;;17.35;6.72;;;8.30;99.90;;;;;;5061860;28;20044;-81
2022/04/22 02:39:30;;;;;;;12.50;6.07;;;8.80;99.90;;;;;;5044875;28;20047;-81
2022/04/22 02:47:24;;;;;;;10.45;5.57;;;8.40;99.90;;;;;;5073359;28;20044;-82
2022/04/22 02:49:50;;;;;;;13.40;6.30;;;8.10;99.90;;;;;;5060148;28;20037;-81
2022/04/22 02:52:16;;;;;;;13.38;5.60;;;8.30;99.90;;;;;;5077382;28;20186;-82
2022/04/22 02:54:42;;;;;;;12.63;5.95;;;8.10;99.90;;;;;;5057635;28;20113;-81
2022/04/22 02:57:09;;;;;;;12.68;5.45;;;8.10;99.90;;;;;;5049920;28;20032;-81
2022/04/22 02:59:37;;;;;;;14.82;5.65;;;8.10;99.90;;;;;;5059697;28;20114;-82
2022/04/22 03:02:03;;;;;;;12.73;5.50;;;8.10;99.90;;;;;;5058148;28;20051;-82
2022/04/22 03:04:29;;;;;;;11.82;5.47;;;8.10;99.90;;;;;;5069608;28;20309;-81
2022/04/22 03:06:56;;;;;;;12.27;5.82;;;8.10;99.90;;;;;;5054792;28;20229;-81
2022/04/22 03:09:23;;;;;;;15.80;5.20;;;8.10;99.90;;;;;;5051485;28;20060;-82
2022/04/22 03:11:49;;;;;;;12.82;5.18;;;8.10;99.90;;;;;;5050010;28;20040;-81
2022/04/22 03:14:14;;;;;;;10.90;5.25;;;8.30;99.90;;;;;;5068180;28;20520;-81
2022/04/22 03:16:42;;;;;;;11.45;4.85;;;8.10;99.90;;;;;;5062423;28;20037;-81
2022/04/22 03:19:08;;;;;;;12.98;4.93;;;8.10;99.90;;;;;;5069589;28;20533;-81
2022/04/22 03:21:34;;;;;;;12.63;5.35;;;8.90;99.90;;;;;;5050695;28;20119;-81
2022/04/22 03:24:00;;;;;;;11.30;4.60;;;8.10;99.90;;;;;;5033788;28;20500;-82
2022/04/22 03:26:26;;;;;;;13.05;5.07;;;8.10;99.90;;;;;;5052963;28;20032;-81
2022/04/22 03:28:52;;;;;;;10.70;4.70;;;8.10;99.90;;;;;;5067430;28;20489;-81
2022/04/22 03:31:19;;;;;;;11.02;5.40;;;8.20;99.90;;;;;;5068147;28;20051;-81
2022/04/22 03:33:44;;;;;;;10.45;4.63;;;8.70;99.90;;;;;;5052942;28;20032;-81
2022/04/22 03:36:10;;;;;;;10.23;4.55;;;8.10;99.90;;;;;;5058559;28;20558;-81
2022/04/22 03:38:37;;;;;;;12.15;5.00;;;8.10;99.90;;;;;;5071711;28;20036;-81
2022/04/22 03:41:03;;;;;;;12.75;4.97;;;8.20;99.90;;;;;;5061901;28;20115;-81
2022/04/22 03:43:28;;;;;;;10.45;4.40;;;8.10;99.90;;;;;;5044431;28;20116;-81
2022/04/22 03:45:54;;;;;;;11.98;4.50;;;8.20;99.90;;;;;;5052631;28;20062;-81
2022/04/22 03:48:20;;;;;;;10.77;4.85;;;8.30;99.90;;;;;;5054961;28;20552;-81
2022/04/22 03:50:46;;;;;;;9.35;4.15;;;8.10;99.90;;;;;;5051947;28;20048;-81
2022/04/22 03:53:12;;;;;;;12.85;4.78;;;8.10;99.90;;;;;;5066817;28;20044;-81
2022/04/22 03:55:40;;;;;;;11.23;4.32;;;8.10;99.90;;;;;;5056265;28;20039;-81
2022/04/22 03:58:12;;;;;;;9.98;4.28;;;8.10;99.90;;;;;;5059510;28;20037;-81
2022/04/22 04:00:46;;;;;;;10.60;4.25;;;8.10;99.90;;;;;;5062211;28;20083;-81
2022/04/22 04:03:29;;;;;;;11.82;4.65;;;8.00;99.90;;;;;;5065593;28;20079;-81
2022/04/22 04:05:55;;;;;;;10.93;4.20;;;8.00;99.90;;;;;;5051319;28;20050;-81
2022/04/22 04:08:24;;;;;;;10.80;4.60;;;8.00;99.90;;;;;;5046039;28;20508;-81
2022/04/22 04:16:28;;;;;;;11.02;4.22;;;7.90;99.90;;;;;;5068897;28;20049;-81
2022/04/22 04:23:14;;;;;;;9.25;4.05;;;7.90;99.90;;;;;;5056944;28;20040;-81
2022/04/22 04:24:23;;;;;;;11.07;4.05;;;7.80;99.90;;;;;;5076127;28;20132;-81
2022/04/22 04:26:49;;;;;;;10.40;4.18;;;7.80;99.90;;;;;;5058121;28;20071;-81
2022/04/22 04:29:16;;;;;;;10.70;4.13;;;8.70;99.90;;;;;;5068221;28;20039;-81
2022/04/22 04:31:41;;;;;;;11.73;4.50;;;7.80;99.90;;;;;;5044989;28;20039;-81
2022/04/22 04:34:07;;;;;;;9.90;3.83;;;7.70;99.90;;;;;;5051366;28;20044;-82
2022/04/22 04:36:32;;;;;;;9.30;4.00;;;7.70;99.90;;;;;;5059156;28;20098;-81
2022/04/22 04:38:58;;;;;;;12.05;4.30;;;7.60;99.90;;;;;;5044564;28;20535;-81
2022/04/22 04:41:24;;;;;;;10.00;4.65;;;7.60;99.90;;;;;;5051893;28;20036;-81
2022/04/22 04:43:51;;;;;;;11.65;3.85;;;7.60;99.90;;;;;;5048605;28;20024;-80
2022/04/22 04:46:17;;;;;;;9.90;4.30;;;7.60;99.90;;;;;;5054318;28;20047;-81
2022/04/22 04:48:43;;;;;;;9.40;4.13;;;7.60;99.90;;;;;;5041331;28;20043;-81
2022/04/22 04:51:09;;;;;;;9.85;3.80;;;7.60;99.90;;;;;;5050079;28;20037;-81
2022/04/22 04:53:35;;;;;;;11.55;4.20;;;7.50;99.90;;;;;;5061245;28;20570;-81
2022/04/22 04:56:01;;;;;;;10.90;4.15;;;7.50;99.90;;;;;;5065093;28;20039;-81
2022/04/22 04:58:26;;;;;;;9.88;4.80;;;7.50;99.90;;;;;;5067104;28;20546;-81
2022/04/22 05:00:52;;;;;;;9.25;4.50;;;7.40;99.90;;;;;;5041738;28;20484;-81
2022/04/22 05:03:18;;;;;;;10.65;4.68;;;7.50;99.90;;;;;;5059391;28;20043;-81
2022/04/22 05:05:44;;;;;;;10.30;4.50;;;7.70;99.90;;;;;;5047050;28;20032;-81
2022/04/22 05:08:10;;;;;;;13.55;4.60;;;7.50;99.90;;;;;;5060812;28;20041;-81
2022/04/22 05:10:36;;;;;;;11.85;4.38;;;7.50;99.90;;;;;;5055202;28;20040;-81
2022/04/22 05:13:03;;;;;;;9.88;4.90;;;7.50;99.90;;;;;;5057969;28;20518;-81
2022/04/22 05:15:30;;;;;;;11.13;4.75;;;7.50;99.90;;;;;;5058297;28;20090;-81
2022/04/22 05:17:58;;;;;;;12.43;4.93;;;7.60;99.90;;;;;;5050731;28;20117;-81
2022/04/22 05:20:25;;;;;;;12.07;4.63;;;7.60;99.90;;;;;;5069901;28;20119;-81
2022/04/22 05:22:52;;;;;;;10.73;4.63;;;8.20;99.90;;;;;;5054580;28;20028;-81
2022/04/22 05:25:19;;;;;;;9.75;4.25;;;7.70;99.90;;;;;;5062286;28;20054;-81
2022/04/22 05:27:45;;;;;;;10.57;4.30;;;7.80;99.90;;;;;;5064869;28;20867;-80
2022/04/22 05:32:56;;;;;;;10.70;4.20;;;7.90;99.90;;;;;;5064430;28;20059;-81
2022/04/22 05:35:26;;;;;;;9.73;3.90;;;8.10;99.90;;;;;;5050876;28;20441;-80
2022/04/22 05:38:10;;;;;;;11.35;3.85;;;8.00;99.90;;;;;;5049401;28;20039;-82
2022/04/22 05:40:37;;;;;;;8.85;3.70;;;8.10;99.90;;;;;;5069901;28;20048;-81
2022/04/22 05:43:05;;;;;;;9.10;3.50;;;8.20;99.90;;;;;;5065310;28;20032;-81
2022/04/22 05:45:32;;;;;;;9.85;3.30;;;8.30;99.90;;;;;;5066746;28;20036;-82
2022/04/22 05:47:58;;;;;;;9.10;3.90;;;8.40;99.90;;;;;;5066601;28;20449;-81
2022/04/22 05:50:25;;;;;;;8.68;3.47;;;8.60;99.90;;;;;;5062193;28;20451;-82
2022/04/22 05:52:52;;;;;;;10.55;3.40;;;8.70;99.90;;;;;;5070973;28;20032;-82
2022/04/22 05:55:23;;;;;;;8.55;3.28;;;8.80;99.90;;;;;;5054662;28;20032;-82
2022/04/22 05:57:50;;;;;;;10.30;3.63;;;8.90;99.90;;;;;;5085314;28;20127;-82
2022/04/22 06:00:21;;;;;;;8.40;3.20;;;9.00;99.90;;;;;;5059485;28;20094;-82
2022/04/22 06:02:47;;;;;;;8.57;3.20;;;9.20;99.90;;;;;;5060307;28;20087;-81
2022/04/22 06:05:17;;;;;;;9.05;3.30;;;9.20;99.90;;;;;;5071092;28;20076;-82
2022/04/22 06:07:44;;;;;;;10.90;3.05;;;9.40;99.90;;;;;;5065592;28;20110;-81
2022/04/22 06:12:57;;;;;;;9.38;3.03;;;9.60;99.90;;;;;;5066629;28;20044;-81
2022/04/22 06:15:23;;;;;;;10.32;3.00;;;9.70;99.90;;;;;;5068948;28;20135;-82
2022/04/22 06:17:49;;;;;;;8.02;2.83;;;9.80;99.90;;;;;;5048793;28;20193;-82
2022/04/22 06:20:15;;;;;;;8.80;3.17;;;9.80;99.90;;;;;;5066951;28;20511;-82
2022/04/22 06:22:41;;;;;;;7.82;2.97;;;9.90;99.90;;;;;;5051285;28;20182;-81
2022/04/22 06:25:09;;;;;;;9.38;3.38;;;10.00;99.90;;;;;;5049542;28;20524;-82
2022/04/22 06:27:39;;;;;;;8.18;2.92;;;10.00;99.90;;;;;;5057145;28;20028;-81
2022/04/22 06:30:17;;;;;;;8.38;3.08;;;10.10;99.90;;;;;;5067781;28;20035;-81
2022/04/22 06:32:45;;;;;;;8.52;2.88;;;10.20;99.90;;;;;;5056854;28;20051;-81
2022/04/22 06:35:11;;;;;;;7.68;2.90;;;10.30;99.90;;;;;;5067193;28;20134;-80
2022/04/22 06:37:39;;;;;;;8.20;2.70;;;10.40;99.90;;;;;;5060924;28;20101;-81
2022/04/22 06:45:46;;;;;;;9.70;3.10;;;10.60;99.90;;;;;;5075668;28;20041;-81
2022/04/22 06:48:33;;;;;;;7.65;2.92;;;10.60;99.90;;;;;;5051093;28;20530;-82
2022/04/22 06:51:00;;;;;;;8.10;2.80;;;10.60;99.90;;;;;;5050266;28;20028;-81
2022/04/22 06:53:27;;;;;;;7.80;2.85;;;10.60;99.90;;;;;;5057417;28;20436;-81
2022/04/22 06:55:54;;;;;;;7.78;2.72;;;10.70;99.90;;;;;;5063391;28;20353;-81
2022/04/22 06:58:21;;;;;;;7.68;2.80;;;10.70;99.90;;;;;;5054760;28;20408;-81
2022/04/22 07:00:48;;;;;;;9.55;2.92;;;10.70;99.90;;;;;;5038565;28;20051;-80
2022/04/22 07:03:15;;;;;;;8.65;2.78;;;11.00;99.90;;;;;;5040232;28;20484;-82
2022/04/22 07:05:43;;;;;;;9.70;2.80;;;10.90;99.90;;;;;;5051139;28;20035;-81
2022/04/22 07:08:14;;;;;;;9.25;2.78;;;10.90;99.90;;;;;;5056231;28;20068;-80
2022/04/22 07:10:43;;;;;;;8.38;2.75;;;11.00;99.90;;;;;;5058441;28;20055;-81
2022/04/22 07:13:10;;;;;;;10.07;2.88;;;11.10;99.90;;;;;;5045347;28;20050;-82
2022/04/22 07:15:37;;;;;;;8.63;2.83;;;11.10;99.90;;;;;;5065088;28;20037;-82
2022/04/22 07:18:03;;;;;;;8.85;3.00;;;11.20;99.90;;;;;;5055403;28;20036;-80
2022/04/22 07:20:29;;;;;;;8.73;2.92;;;12.00;99.90;;;;;;5068681;28;20045;-80
2022/04/22 07:22:55;;;;;;;7.63;2.60;;;11.40;99.90;;;;;;5047950;28;20512;-81
2022/04/22 07:25:21;;;;;;;8.98;2.95;;;11.50;99.90;;;;;;5057779;28;20036;-81
2022/04/22 07:27:48;;;;;;;7.53;2.97;;;11.50;99.90;;;;;;5047703;28;20121;-81
2022/04/22 07:30:16;;;;;;;9.75;2.95;;;11.60;99.90;;;;;;5058424;28;20052;-82
2022/04/22 07:32:45;;;;;;;9.25;2.80;;;11.70;99.90;;;;;;5042537;28;20334;-82
2022/04/22 07:35:12;;;;;;;9.90;3.08;;;11.60;99.90;;;;;;5028766;28;20489;-81
2022/04/22 07:37:39;;;;;;;10.02;2.88;;;11.60;99.90;;;;;;5051201;28;20034;-81
2022/04/22 07:40:06;;;;;;;16.05;3.00;;;11.70;99.90;;;;;;5058683;28;20190;-81
2022/04/22 07:42:34;;;;;;;8.75;2.90;;;11.80;99.90;;;;;;5066050;28;20385;-82
2022/04/22 07:47:47;;;;;;;8.45;2.55;;;11.80;99.90;;;;;;5075124;28;20044;-81
2022/04/22 07:50:14;;;;;;;7.53;2.58;;;11.80;99.90;;;;;;5060230;28;20032;-82
2022/04/22 07:52:44;;;;;;;8.68;2.92;;;11.90;99.90;;;;;;5046873;28;20039;-82
2022/04/22 07:55:10;;;;;;;8.63;2.80;;;12.00;99.90;;;;;;5054405;28;20040;-83
2022/04/22 07:57:36;;;;;;;7.82;2.90;;;12.00;99.90;;;;;;5061539;28;20064;-82
2022/04/22 08:00:03;;;;;;;9.68;2.80;;;12.10;99.90;;;;;;5076730;28;20401;-81
2022/04/22 08:02:29;;;;;;;9.32;3.08;;;12.30;99.90;;;;;;5060371;28;20117;-81
2022/04/22 08:04:55;;;;;;;8.77;2.90;;;12.30;99.90;;;;;;5060343;28;20474;-82
2022/04/22 08:07:20;;;;;;;9.20;2.92;;;12.50;99.90;;;;;;5062457;28;20033;-80
2022/04/22 08:09:46;;;;;;;9.60;3.08;;;12.60;99.90;;;;;;5079702;28;20122;-82
2022/04/22 08:12:16;;;;;;;8.35;2.83;;;12.60;99.90;;;;;;5036613;28;20043;-82
2022/04/22 08:14:42;;;;;;;8.70;2.75;;;12.60;99.90;;;;;;5041299;28;20063;-82
2022/04/22 08:17:07;;;;;;;9.18;2.92;;;12.60;99.90;;;;;;5050041;28;20404;-81
2022/04/22 08:19:34;;;;;;;7.75;2.90;;;12.70;99.90;;;;;;5066636;28;20040;-82
2022/04/22 08:22:00;;;;;;;9.02;3.30;;;12.80;99.90;;;;;;5061509;28;20140;-81
2022/04/22 08:24:26;;;;;;;8.38;3.08;;;12.90;99.90;;;;;;5058383;28;20313;-82
2022/04/22 08:26:52;;;;;;;11.65;3.83;;;13.00;99.90;;;;;;5050927;28;20267;-82
2022/04/22 08:29:18;;;;;;;9.07;3.03;;;13.00;99.90;;;;;;5058454;28;20453;-82
2022/04/22 08:31:47;;;;;;;9.07;2.90;;;13.00;99.90;;;;;;5066491;28;20047;-82
2022/04/22 08:34:13;;;;;;;9.52;3.00;;;13.10;99.90;;;;;;5045967;28;20067;-82
2022/04/22 08:36:39;;;;;;;11.57;3.00;;;13.30;99.90;;;;;;5048785;28;20488;-81
2022/04/22 08:39:07;;;;;;;9.00;3.00;;;13.20;99.90;;;;;;5056247;28;20157;-81
2022/04/22 08:41:35;;;;;;;7.45;2.85;;;13.40;99.90;;;;;;5048402;28;20405;-81
2022/04/22 08:44:01;;;;;;;13.15;3.25;;;13.40;99.90;;;;;;5083408;28;20039;-81
2022/04/22 08:52:02;;;;;;;7.90;2.83;;;13.60;99.90;;;;;;5055115;28;20110;-81
2022/04/22 08:54:29;;;;;;;9.13;2.72;;;13.70;99.90;;;;;;5061441;28;20127;-83
2022/04/22 08:56:55;;;;;;;8.68;3.20;;;13.80;99.90;;;;;;5071806;28;20455;-82
2022/04/22 08:59:21;;;;;;;8.52;3.00;;;13.80;99.90;;;;;;5070674;28;20040;-82
2022/04/22 09:01:48;;;;;;;9.10;3.10;;;13.90;99.90;;;;;;5048167;28;20050;-83
2022/04/22 09:04:13;;;;;;;7.22;2.70;;;13.90;99.90;;;;;;5075396;28;20036;-80
2022/04/22 09:06:40;;;;;;;8.77;2.78;;;14.10;99.90;;;;;;5046129;28;20039;-81
2022/04/22 09:09:07;;;;;;;8.57;3.30;;;14.20;99.90;;;;;;5067764;28;20116;-80
2022/04/22 09:11:38;;;;;;;9.57;2.88;;;14.20;99.90;;;;;;5074407;28;20043;-82
2022/04/22 09:14:04;;;;;;;8.80;2.88;;;14.20;99.90;;;;;;5076161;28;20059;-81
2022/04/22 09:16:30;;;;;;;8.85;2.83;;;14.30;99.90;;;;;;5075619;28;20071;-82
2022/04/22 09:19:03;;;;;;;10.20;3.83;;;14.40;99.90;;;;;;5075188;28;20080;-81
2022/04/22 09:21:32;;;;;;;8.80;3.30;;;14.40;99.90;;;;;;5088292;28;20116;-81
2022/04/22 09:24:13;;;;;;;8.15;2.78;;;14.40;99.90;;;;;;5060151;28;20457;-81
2022/04/22 09:26:40;;;;;;;8.20;3.00;;;14.40;99.90;;;;;;5076206;28;20145;-81
2022/04/22 09:29:06;;;;;;;10.50;3.05;;;14.40;99.90;;;;;;5067111;28;20028;-81
2022/04/22 09:31:46;;;;;;;8.00;2.70;;;14.50;99.90;;;;;;5084322;28;20117;-81
2022/04/22 09:34:12;;;;;;;9.65;3.22;;;14.60;99.90;;;;;;5073266;28;20488;-81
2022/04/22 09:44:55;;;;;;;9.07;3.08;;;14.80;99.90;;;;;;5079201;28;20040;-82
2022/04/22 09:47:25;;;;;;;9.70;2.80;;;14.80;99.90;;;;;;5032899;28;20437;-82
2022/04/22 09:49:51;;;;;;;8.73;2.55;;;14.80;99.90;;;;;;5060673;28;20044;-81
2022/04/22 09:52:31;;;;;;;8.40;2.72;;;14.80;99.90;;;;;;5037988;28;20048;-81
2022/04/22 09:54:57;;;;;;;8.43;2.88;;;14.80;99.90;;;;;;5083008;28;20093;-82
2022/04/22 09:57:24;;;;;;;7.93;2.97;;;14.80;99.90;;;;;;5049440;28;20097;-83
2022/04/22 09:59:51;;;;;;;8.15;2.75;;;14.90;99.90;;;;;;5067082;28;20041;-82
2022/04/22 10:02:25;;;;;;;9.23;2.92;;;15.00;99.90;;;;;;5042314;28;20044;-82
2022/04/22 10:04:56;;;;;;;9.18;3.00;;;15.00;99.90;;;;;;5059092;28;20032;-82
2022/04/22 10:07:26;;;;;;;9.20;3.20;;;15.20;99.90;;;;;;5083538;28;20028;-81
2022/04/22 10:09:54;;;;;;;7.55;3.00;;;15.10;99.90;;;;;;5056507;28;20039;-81
2022/04/22 10:12:24;;;;;;;8.85;2.95;;;15.20;99.90;;;;;;5044708;28;20043;-82
2022/04/22 10:14:53;;;;;;;8.38;3.08;;;15.30;99.90;;;;;;5053148;28;20434;-82
2022/04/22 10:17:20;;;;;;;9.40;3.20;;;15.40;99.90;;;;;;5064731;28;20036;-82
2022/04/22 10:19:46;;;;;;;8.20;2.83;;;15.50;99.90;;;;;;5059222;28;20100;-81
2022/04/22 10:22:12;;;;;;;9.02;3.10;;;15.60;99.90;;;;;;5059126;28;20037;-82
2022/04/22 10:24:39;;;;;;;7.95;3.20;;;15.60;99.90;;;;;;5043396;28;20478;-83
2022/04/22 10:27:08;;;;;;;7.85;2.78;;;15.70;99.90;;;;;;5042733;28;20035;-82
2022/04/22 10:29:36;;;;;;;9.25;3.30;;;15.70;99.90;;;;;;5049630;28;20182;-83
2022/04/22 10:32:05;;;;;;;8.20;3.20;;;15.70;99.90;;;;;;5058112;28;20045;-82
2022/04/22 10:34:43;;;;;;;10.88;4.22;;;15.80;99.90;;;;;;5056751;28;20500;-83
2022/04/22 10:37:19;;;;;;;9.40;3.10;;;15.80;99.90;;;;;;5077330;28;20564;-83
2022/04/22 10:39:52;;;;;;;9.75;3.28;;;15.90;99.90;;;;;;5076221;28;20062;-82
2022/04/22 10:42:18;;;;;;;10.43;3.35;;;15.90;99.90;;;;;;5056699;28;20315;-83
2022/04/22 10:47:45;;;;;;;9.88;3.25;;;16.00;99.90;;;;;;5077267;28;20043;-83
2022/04/22 10:50:29;;;;;;;10.98;3.10;;;16.00;99.90;;;;;;5062973;28;20043;-82
2022/04/22 10:53:09;;;;;;;8.65;3.28;;;16.10;99.90;;;;;;5064128;28;20036;-82
2022/04/22 10:55:36;;;;;;;8.32;2.92;;;16.00;99.90;;;;;;5084005;28;20032;-83
2022/04/22 10:58:14;;;;;;;9.10;3.45;;;16.00;99.90;;;;;;5057486;28;20032;-83
2022/04/22 11:01:00;;;;;;;10.40;3.97;;;16.20;99.90;;;;;;5067647;28;20040;-82
2022/04/22 11:03:31;;;;;;;9.20;3.38;;;16.20;99.90;;;;;;5075720;28;20051;-82
2022/04/22 11:06:07;;;;;;;10.50;3.55;;;16.20;99.90;;;;;;5059544;28;20047;-83
2022/04/22 11:08:39;;;;;;;8.88;3.33;;;16.20;99.90;;;;;;5041723;28;20037;-83
2022/04/22 11:11:10;;;;;;;8.93;3.28;;;16.10;99.90;;;;;;5067662;28;20040;-83
2022/04/22 11:13:41;;;;;;;9.40;3.45;;;16.20;99.90;;;;;;5075066;28;20040;-83
2022/04/22 11:16:33;;;;;;;10.60;3.33;;;16.20;99.90;;;;;;5076195;28;20139;-83
2022/04/22 11:19:26;;;;;;;11.30;3.50;;;16.20;99.90;;;;;;5042374;28;20513;-83
2022/04/22 11:21:57;;;;;;;9.10;3.72;;;16.20;99.90;;;;;;5080452;28;20048;-82
2022/04/22 11:24:27;;;;;;;8.15;3.55;;;16.20;99.90;;;;;;5061367;28;20070;-83
2022/04/22 11:27:06;;;;;;;9.95;3.67;;;16.30;99.90;;;;;;5078399;28;20084;-82
2022/04/22 11:29:32;;;;;;;9.23;3.72;;;16.40;99.90;;;;;;5058168;28;20133;-83
2022/04/22 11:32:11;;;;;;;8.30;3.42;;;16.40;99.90;;;;;;5074970;28;20127;-83
2022/04/22 11:35:04;;;;;;;8.38;3.58;;;16.50;99.90;;;;;;5064258;28;20043;-83
2022/04/22 11:37:30;;;;;;;;;;;16.60;99.90;;;;;;5061317;28;20036;-82
2022/04/22 11:39:56;;;;;;;11.32;4.25;;;16.60;99.90;;;;;;5067003;28;19922;-84
2022/04/22 11:42:22;;;;;;;9.40;3.60;;;16.60;99.90;;;;;;5051889;28;20043;-83
2022/04/22 11:45:20;;;;;;;11.30;3.55;;;16.60;99.90;;;;;;5059263;28;20040;-83
2022/04/22 11:47:47;;;;;;;9.07;3.60;;;16.80;99.90;;;;;;5043080;28;20048;-83
2022/04/22 11:50:24;;;;;;;9.23;3.40;;;16.80;99.90;;;;;;5074864;28;20032;-83
2022/04/22 11:52:56;;;;;;;12.35;3.70;;;16.90;99.90;;;;;;5065075;28;20127;-83
2022/04/22 11:55:22;;;;;;;10.10;3.90;;;16.90;99.90;;;;;;5051558;28;20443;-82
2022/04/22 11:57:48;;;;;;;8.48;3.50;;;17.00;99.90;;;;;;5058336;28;20039;-83
2022/04/22 12:05:51;;;;;;;9.27;3.60;;;17.10;99.90;;;;;;5048350;28;20127;-82
2022/04/22 12:08:18;;;;;;;10.02;3.50;;;17.20;99.90;;;;;;5042891;28;20131;-82
2022/04/22 12:10:50;;;;;;;9.98;3.67;;;17.30;99.90;;;;;;5058092;28;20052;-83
2022/04/22 12:13:17;;;;;;;8.52;3.42;;;17.40;99.90;;;;;;5067637;28;20493;-83
2022/04/22 12:15:48;;;;;;;9.95;4.03;;;17.40;99.90;;;;;;5064853;28;20075;-83
2022/04/22 12:18:33;;;;;;;10.07;4.00;;;17.40;99.90;;;;;;5068278;28;20243;-83
2022/04/22 12:20:59;;;;;;;11.23;3.70;;;17.40;99.90;;;;;;5069132;28;20277;-82
2022/04/22 12:23:36;;;;;;;9.15;3.50;;;17.40;99.90;;;;;;5055150;28;20685;-83
2022/04/22 12:26:02;;;;;;;10.10;4.07;;;17.50;99.90;;;;;;5056999;28;20085;-83
2022/04/22 12:28:28;;;;;;;9.73;3.90;;;17.50;99.90;;;;;;5065209;28;20044;-83
2022/04/22 12:30:54;;;;;;;11.23;4.00;;;17.40;99.90;;;;;;5038996;28;20029;-83
2022/04/22 12:33:24;;;;;;;9.93;3.83;;;17.40;99.90;;;;;;5045800;28;20367;-83
2022/04/22 12:36:02;;;;;;;9.02;4.07;;;17.40;99.90;;;;;;5076881;28;20025;-82
2022/04/22 12:38:29;;;;;;;11.07;3.80;;;17.50;99.90;;;;;;5074181;28;20036;-83
2022/04/22 12:40:57;;;;;;;9.68;3.92;;;17.50;99.90;;;;;;5057520;28;20052;-83
2022/04/22 12:43:32;;;;;;;10.20;4.10;;;17.60;99.90;;;;;;5043106;28;20034;-83
2022/04/22 12:52:09;;;;;;;9.98;4.10;;;17.70;99.90;;;;;;5073027;28;20083;-83
2022/04/22 12:54:39;;;;;;;10.98;4.32;;;17.80;99.90;;;;;;5071223;28;20072;-82
2022/04/22 12:57:05;;;;;;;8.10;3.85;;;17.90;99.90;;;;;;5061324;28;20043;-82
2022/04/22 12:59:44;;;;;;;8.85;4.15;;;18.00;99.90;;;;;;5071338;28;20040;-83
2022/04/22 13:02:12;;;;;;;9.02;3.92;;;18.10;99.90;;;;;;5060152;28;20071;-82
2022/04/22 13:04:51;;;;;;;10.18;4.40;;;18.10;99.90;;;;;;5057753;28;20067;-83
2022/04/22 13:07:17;;;;;;;10.55;4.53;;;18.20;99.90;;;;;;5066893;28;20130;-84
2022/04/22 13:09:42;;;;;;;11.38;4.40;;;18.20;99.90;;;;;;5046743;28;20159;-82
2022/04/22 13:12:09;;;;;;;9.07;4.32;;;18.20;99.90;;;;;;5066304;28;20109;-82
2022/04/22 13:14:35;;;;;;;9.88;3.92;;;18.20;99.90;;;;;;5060872;28;20036;-83
2022/04/22 13:17:01;;;;;;;10.18;4.18;;;18.20;99.90;;;;;;5047944;28;20040;-83
2022/04/22 13:19:27;;;;;;;11.73;4.97;;;18.30;99.90;;;;;;5057540;28;20090;-82
2022/04/22 13:21:53;;;;;;;13.27;5.05;;;18.00;99.90;;;;;;5048665;28;20041;-82
2022/04/22 13:24:18;;;;;;;8.82;3.88;;;17.90;99.90;;;;;;5044801;28;20036;-83
2022/04/22 13:26:44;;;;;;;8.43;4.05;;;17.70;99.90;;;;;;5052338;28;20565;-83
2022/04/22 13:29:10;;;;;;;10.55;4.40;;;17.60;99.90;;;;;;5043730;28;20127;-83
2022/04/22 13:31:35;;;;;;;11.52;4.28;;;17.70;99.90;;;;;;5045420;28;20048;-83
2022/04/22 13:34:03;;;;;;;10.85;4.22;;;17.90;99.90;;;;;;5072362;28;20368;-83
2022/04/22 13:36:31;;;;;;;9.68;4.50;;;18.20;99.90;;;;;;5040382;28;20039;-83
2022/04/22 13:38:57;;;;;;;12.48;4.82;;;18.30;99.90;;;;;;5057198;28;20512;-84
2022/04/22 13:41:23;;;;;;;10.10;4.13;;;18.50;99.90;;;;;;5029199;28;20371;-83
2022/04/22 13:43:49;;;;;;;10.70;4.25;;;18.60;99.90;;;;;;5063196;28;20115;-83
2022/04/22 13:52:21;;;;;;;8.95;3.97;;;18.10;99.90;;;;;;5064662;28;20044;-82
2022/04/22 13:54:43;;;;;;;11.07;4.65;;;18.40;99.90;;;;;;5059627;28;20556;-82
2022/04/22 13:57:09;;;;;;;10.65;4.70;;;18.40;99.90;;;;;;5070596;28;20122;-83
2022/04/22 13:59:35;;;;;;;11.35;4.55;;;18.60;99.90;;;;;;5060116;28;20037;-82